sensor_id;sensor_type;location;lat;lon;timestamp;P1;durP1;ratioP1;P2;durP2;ratioP2
24650;SDS011;12783;48.824;8.662;2022-10-18T00:02:16;11.07;;;2.20;;
24650;SDS011;12783;48.824;8.662;2022-10-18T00:04:45;14.32;;;2.83;;
24650;SDS011;12783;48.824;8.662;2022-10-18T00:07:12;11.77;;;2.10;;
24650;SDS011;12783;48.824;8.662;2022-10-18T00:09:39;7.43;;;2.22;;
24650;SDS011;12783;48.824;8.662;2022-10-18T00:12:06;7.90;;;1.85;;
24650;SDS011;12783;48.824;8.662;2022-10-18T00:14:33;5.95;;;2.03;;
24650;SDS011;12783;48.824;8.662;2022-10-18T00:17:00;8.05;;;2.00;;
24650;SDS011;12783;48.824;8.662;2022-10-18T00:19:27;11.98;;;2.03;;
24650;SDS011;12783;48.824;8.662;2022-10-18T00:21:54;6.93;;;1.80;;
24650;SDS011;12783;48.824;8.662;2022-10-18T00:24:21;7.72;;;1.85;;
24650;SDS011;12783;48.824;8.662;2022-10-18T00:26:48;9.85;;;2.38;;
24650;SDS011;12783;48.824;8.662;2022-10-18T00:29:16;4.65;;;1.83;;
24650;SDS011;12783;48.824;8.662;2022-10-18T00:31:43;3.03;;;1.60;;
24650;SDS011;12783;48.824;8.662;2022-10-18T00:34:11;15.13;;;2.40;;
24650;SDS011;12783;48.824;8.662;2022-10-18T00:36:39;8.63;;;2.10;;
24650;SDS011;12783;48.824;8.662;2022-10-18T00:39:14;6.22;;;2.00;;
24650;SDS011;12783;48.824;8.662;2022-10-18T00:41:43;3.92;;;1.90;;
24650;SDS011;12783;48.824;8.662;2022-10-18T00:46:38;6.22;;;1.77;;
24650;SDS011;12783;48.824;8.662;2022-10-18T00:49:10;4.70;;;2.20;;
24650;SDS011;12783;48.824;8.662;2022-10-18T00:51:43;10.43;;;2.00;;
24650;SDS011;12783;48.824;8.662;2022-10-18T00:54:12;7.43;;;1.88;;
24650;SDS011;12783;48.824;8.662;2022-10-18T00:56:40;6.82;;;2.15;;
24650;SDS011;12783;48.824;8.662;2022-10-18T00:59:10;8.63;;;1.98;;
24650;SDS011;12783;48.824;8.662;2022-10-18T01:01:38;7.38;;;2.00;;
24650;SDS011;12783;48.824;8.662;2022-10-18T01:04:05;9.57;;;1.92;;
24650;SDS011;12783;48.824;8.662;2022-10-18T01:06:32;13.73;;;1.73;;
24650;SDS011;12783;48.824;8.662;2022-10-18T01:14:58;10.32;;;1.90;;
24650;SDS011;12783;48.824;8.662;2022-10-18T01:26:36;7.85;;;1.70;;
24650;SDS011;12783;48.824;8.662;2022-10-18T01:32:25;3.33;;;1.80;;
24650;SDS011;12783;48.824;8.662;2022-10-18T01:34:57;2.78;;;1.63;;
24650;SDS011;12783;48.824;8.662;2022-10-18T01:37:27;5.45;;;1.73;;
24650;SDS011;12783;48.824;8.662;2022-10-18T01:39:56;6.90;;;1.60;;
24650;SDS011;12783;48.824;8.662;2022-10-18T01:42:23;7.57;;;1.58;;
24650;SDS011;12783;48.824;8.662;2022-10-18T01:44:51;6.60;;;1.55;;
24650;SDS011;12783;48.824;8.662;2022-10-18T01:47:18;5.78;;;1.63;;
24650;SDS011;12783;48.824;8.662;2022-10-18T01:49:45;4.78;;;1.50;;
24650;SDS011;12783;48.824;8.662;2022-10-18T01:52:13;7.75;;;1.85;;
24650;SDS011;12783;48.824;8.662;2022-10-18T01:54:44;19.10;;;1.90;;
24650;SDS011;12783;48.824;8.662;2022-10-18T01:57:23;5.07;;;2.15;;
24650;SDS011;12783;48.824;8.662;2022-10-18T02:00:18;5.82;;;1.92;;
24650;SDS011;12783;48.824;8.662;2022-10-18T02:02:54;16.35;;;2.45;;
24650;SDS011;12783;48.824;8.662;2022-10-18T02:10:56;3.22;;;1.70;;
24650;SDS011;12783;48.824;8.662;2022-10-18T02:13:25;9.40;;;1.80;;
24650;SDS011;12783;48.824;8.662;2022-10-18T02:15:57;5.65;;;1.88;;
24650;SDS011;12783;48.824;8.662;2022-10-18T02:18:28;4.72;;;1.88;;
24650;SDS011;12783;48.824;8.662;2022-10-18T02:20:59;4.95;;;1.60;;
24650;SDS011;12783;48.824;8.662;2022-10-18T02:23:27;6.90;;;1.95;;
24650;SDS011;12783;48.824;8.662;2022-10-18T02:25:54;5.47;;;2.20;;
24650;SDS011;12783;48.824;8.662;2022-10-18T02:28:21;6.57;;;1.70;;
24650;SDS011;12783;48.824;8.662;2022-10-18T02:31:04;4.50;;;1.83;;
24650;SDS011;12783;48.824;8.662;2022-10-18T02:33:49;10.20;;;1.90;;
24650;SDS011;12783;48.824;8.662;2022-10-18T02:36:32;7.15;;;2.28;;
24650;SDS011;12783;48.824;8.662;2022-10-18T02:39:13;8.48;;;1.90;;
24650;SDS011;12783;48.824;8.662;2022-10-18T02:41:43;5.88;;;1.50;;
24650;SDS011;12783;48.824;8.662;2022-10-18T02:44:10;11.10;;;1.95;;
24650;SDS011;12783;48.824;8.662;2022-10-18T02:46:37;10.82;;;1.75;;
24650;SDS011;12783;48.824;8.662;2022-10-18T02:49:05;6.03;;;1.70;;
24650;SDS011;12783;48.824;8.662;2022-10-18T02:51:33;3.40;;;1.50;;
24650;SDS011;12783;48.824;8.662;2022-10-18T02:53:59;8.15;;;1.70;;
24650;SDS011;12783;48.824;8.662;2022-10-18T02:56:26;7.38;;;1.90;;
24650;SDS011;12783;48.824;8.662;2022-10-18T02:58:53;5.35;;;1.90;;
24650;SDS011;12783;48.824;8.662;2022-10-18T03:01:20;5.90;;;1.83;;
24650;SDS011;12783;48.824;8.662;2022-10-18T03:03:47;6.95;;;2.00;;
24650;SDS011;12783;48.824;8.662;2022-10-18T03:06:14;10.45;;;1.70;;
24650;SDS011;12783;48.824;8.662;2022-10-18T03:08:41;9.75;;;1.60;;
24650;SDS011;12783;48.824;8.662;2022-10-18T03:11:07;13.27;;;2.10;;
24650;SDS011;12783;48.824;8.662;2022-10-18T03:13:34;7.80;;;1.90;;
24650;SDS011;12783;48.824;8.662;2022-10-18T03:16:01;8.63;;;2.15;;
24650;SDS011;12783;48.824;8.662;2022-10-18T03:18:28;8.57;;;2.20;;
24650;SDS011;12783;48.824;8.662;2022-10-18T03:20:55;5.75;;;1.77;;
24650;SDS011;12783;48.824;8.662;2022-10-18T03:23:21;6.55;;;2.05;;
24650;SDS011;12783;48.824;8.662;2022-10-18T03:25:48;10.95;;;2.10;;
24650;SDS011;12783;48.824;8.662;2022-10-18T03:28:15;19.38;;;2.67;;
24650;SDS011;12783;48.824;8.662;2022-10-18T03:30:42;3.78;;;2.00;;
24650;SDS011;12783;48.824;8.662;2022-10-18T03:33:08;7.10;;;1.75;;
24650;SDS011;12783;48.824;8.662;2022-10-18T03:35:35;4.13;;;2.22;;
24650;SDS011;12783;48.824;8.662;2022-10-18T03:38:02;6.85;;;1.90;;
24650;SDS011;12783;48.824;8.662;2022-10-18T03:40:29;6.05;;;2.15;;
24650;SDS011;12783;48.824;8.662;2022-10-18T03:43:01;16.00;;;1.70;;
24650;SDS011;12783;48.824;8.662;2022-10-18T03:45:27;4.55;;;2.05;;
24650;SDS011;12783;48.824;8.662;2022-10-18T03:47:56;5.88;;;2.10;;
24650;SDS011;12783;48.824;8.662;2022-10-18T03:50:23;7.78;;;1.90;;
24650;SDS011;12783;48.824;8.662;2022-10-18T03:52:50;6.47;;;2.20;;
24650;SDS011;12783;48.824;8.662;2022-10-18T03:55:17;9.35;;;2.45;;
24650;SDS011;12783;48.824;8.662;2022-10-18T03:57:44;8.68;;;2.33;;
24650;SDS011;12783;48.824;8.662;2022-10-18T04:00:10;3.47;;;2.20;;
24650;SDS011;12783;48.824;8.662;2022-10-18T04:02:38;6.75;;;1.90;;
24650;SDS011;12783;48.824;8.662;2022-10-18T04:05:05;7.07;;;2.20;;
24650;SDS011;12783;48.824;8.662;2022-10-18T04:07:33;9.88;;;1.90;;
24650;SDS011;12783;48.824;8.662;2022-10-18T04:10:00;10.88;;;2.17;;
24650;SDS011;12783;48.824;8.662;2022-10-18T04:12:27;8.88;;;2.08;;
24650;SDS011;12783;48.824;8.662;2022-10-18T04:14:54;3.05;;;1.95;;
24650;SDS011;12783;48.824;8.662;2022-10-18T04:17:21;6.68;;;1.90;;
24650;SDS011;12783;48.824;8.662;2022-10-18T04:19:47;5.82;;;1.80;;
24650;SDS011;12783;48.824;8.662;2022-10-18T04:22:14;8.63;;;2.17;;
24650;SDS011;12783;48.824;8.662;2022-10-18T04:24:41;6.47;;;1.95;;
24650;SDS011;12783;48.824;8.662;2022-10-18T04:27:08;19.73;;;2.53;;
24650;SDS011;12783;48.824;8.662;2022-10-18T04:29:34;10.40;;;2.42;;
24650;SDS011;12783;48.824;8.662;2022-10-18T04:32:01;4.03;;;1.92;;
24650;SDS011;12783;48.824;8.662;2022-10-18T04:34:28;11.68;;;2.30;;
24650;SDS011;12783;48.824;8.662;2022-10-18T04:36:55;3.10;;;1.88;;
24650;SDS011;12783;48.824;8.662;2022-10-18T04:39:22;12.68;;;2.08;;
24650;SDS011;12783;48.824;8.662;2022-10-18T04:41:48;7.60;;;2.22;;
24650;SDS011;12783;48.824;8.662;2022-10-18T04:44:15;3.78;;;1.92;;
24650;SDS011;12783;48.824;8.662;2022-10-18T04:46:42;7.38;;;1.95;;
24650;SDS011;12783;48.824;8.662;2022-10-18T04:49:09;10.43;;;2.17;;
24650;SDS011;12783;48.824;8.662;2022-10-18T04:51:35;16.60;;;2.20;;
24650;SDS011;12783;48.824;8.662;2022-10-18T04:54:02;10.18;;;2.20;;
24650;SDS011;12783;48.824;8.662;2022-10-18T04:56:29;9.70;;;2.38;;
24650;SDS011;12783;48.824;8.662;2022-10-18T04:58:56;10.95;;;3.08;;
24650;SDS011;12783;48.824;8.662;2022-10-18T05:01:24;7.38;;;2.10;;
24650;SDS011;12783;48.824;8.662;2022-10-18T05:03:51;9.52;;;2.80;;
24650;SDS011;12783;48.824;8.662;2022-10-18T05:06:20;5.55;;;1.98;;
24650;SDS011;12783;48.824;8.662;2022-10-18T05:08:47;5.53;;;1.90;;
24650;SDS011;12783;48.824;8.662;2022-10-18T05:11:14;12.57;;;2.30;;
24650;SDS011;12783;48.824;8.662;2022-10-18T05:13:41;14.73;;;2.60;;
24650;SDS011;12783;48.824;8.662;2022-10-18T05:16:12;6.57;;;2.05;;
24650;SDS011;12783;48.824;8.662;2022-10-18T05:18:39;5.65;;;2.30;;
24650;SDS011;12783;48.824;8.662;2022-10-18T05:21:05;7.88;;;2.60;;
24650;SDS011;12783;48.824;8.662;2022-10-18T05:23:32;8.38;;;2.10;;
24650;SDS011;12783;48.824;8.662;2022-10-18T05:26:03;11.18;;;2.33;;
24650;SDS011;12783;48.824;8.662;2022-10-18T05:28:31;8.63;;;2.20;;
24650;SDS011;12783;48.824;8.662;2022-10-18T05:31:06;7.93;;;2.60;;
24650;SDS011;12783;48.824;8.662;2022-10-18T05:33:33;8.73;;;2.22;;
24650;SDS011;12783;48.824;8.662;2022-10-18T05:36:00;14.68;;;2.22;;
24650;SDS011;12783;48.824;8.662;2022-10-18T05:38:27;19.25;;;2.40;;
24650;SDS011;12783;48.824;8.662;2022-10-18T05:40:56;11.98;;;2.40;;
24650;SDS011;12783;48.824;8.662;2022-10-18T05:43:27;5.32;;;2.30;;
24650;SDS011;12783;48.824;8.662;2022-10-18T05:45:54;7.82;;;2.20;;
24650;SDS011;12783;48.824;8.662;2022-10-18T05:48:21;11.98;;;2.55;;
24650;SDS011;12783;48.824;8.662;2022-10-18T05:50:48;7.85;;;2.38;;
24650;SDS011;12783;48.824;8.662;2022-10-18T05:53:15;14.77;;;2.50;;
24650;SDS011;12783;48.824;8.662;2022-10-18T05:56:01;5.43;;;2.17;;
24650;SDS011;12783;48.824;8.662;2022-10-18T05:58:28;10.20;;;2.60;;
24650;SDS011;12783;48.824;8.662;2022-10-18T06:00:59;8.32;;;2.47;;
24650;SDS011;12783;48.824;8.662;2022-10-18T06:03:27;10.10;;;2.17;;
24650;SDS011;12783;48.824;8.662;2022-10-18T06:06:09;12.25;;;2.20;;
24650;SDS011;12783;48.824;8.662;2022-10-18T06:08:37;5.30;;;1.80;;
24650;SDS011;12783;48.824;8.662;2022-10-18T06:11:05;8.57;;;2.45;;
24650;SDS011;12783;48.824;8.662;2022-10-18T06:13:33;11.15;;;2.42;;
24650;SDS011;12783;48.824;8.662;2022-10-18T06:16:00;5.00;;;2.00;;
24650;SDS011;12783;48.824;8.662;2022-10-18T06:18:26;7.25;;;2.42;;
24650;SDS011;12783;48.824;8.662;2022-10-18T06:20:55;10.77;;;2.20;;
24650;SDS011;12783;48.824;8.662;2022-10-18T06:23:23;13.57;;;2.42;;
24650;SDS011;12783;48.824;8.662;2022-10-18T06:25:51;9.18;;;1.92;;
24650;SDS011;12783;48.824;8.662;2022-10-18T06:28:18;12.68;;;2.50;;
24650;SDS011;12783;48.824;8.662;2022-10-18T06:30:45;15.18;;;2.38;;
24650;SDS011;12783;48.824;8.662;2022-10-18T06:33:11;11.25;;;2.70;;
24650;SDS011;12783;48.824;8.662;2022-10-18T06:35:38;14.63;;;2.58;;
24650;SDS011;12783;48.824;8.662;2022-10-18T06:38:05;24.45;;;2.88;;
24650;SDS011;12783;48.824;8.662;2022-10-18T06:40:32;9.25;;;2.50;;
24650;SDS011;12783;48.824;8.662;2022-10-18T06:43:03;11.95;;;2.03;;
24650;SDS011;12783;48.824;8.662;2022-10-18T06:45:46;12.02;;;2.47;;
24650;SDS011;12783;48.824;8.662;2022-10-18T06:48:12;8.82;;;1.92;;
24650;SDS011;12783;48.824;8.662;2022-10-18T06:50:39;8.48;;;2.20;;
24650;SDS011;12783;48.824;8.662;2022-10-18T06:53:06;5.57;;;2.20;;
24650;SDS011;12783;48.824;8.662;2022-10-18T06:55:34;11.18;;;1.92;;
24650;SDS011;12783;48.824;8.662;2022-10-18T06:58:01;10.68;;;2.20;;
24650;SDS011;12783;48.824;8.662;2022-10-18T07:00:27;6.28;;;1.90;;
24650;SDS011;12783;48.824;8.662;2022-10-18T07:02:55;14.10;;;2.45;;
24650;SDS011;12783;48.824;8.662;2022-10-18T07:05:22;6.30;;;2.10;;
24650;SDS011;12783;48.824;8.662;2022-10-18T07:07:49;10.00;;;2.20;;
24650;SDS011;12783;48.824;8.662;2022-10-18T07:10:22;11.13;;;2.22;;
24650;SDS011;12783;48.824;8.662;2022-10-18T07:12:49;12.98;;;2.40;;
24650;SDS011;12783;48.824;8.662;2022-10-18T07:15:21;5.78;;;2.20;;
24650;SDS011;12783;48.824;8.662;2022-10-18T07:17:49;7.28;;;2.40;;
24650;SDS011;12783;48.824;8.662;2022-10-18T07:20:16;13.95;;;2.05;;
24650;SDS011;12783;48.824;8.662;2022-10-18T07:22:43;5.47;;;2.08;;
24650;SDS011;12783;48.824;8.662;2022-10-18T07:25:09;17.30;;;3.28;;
24650;SDS011;12783;48.824;8.662;2022-10-18T07:27:37;10.88;;;2.50;;
24650;SDS011;12783;48.824;8.662;2022-10-18T07:30:05;9.07;;;2.08;;
24650;SDS011;12783;48.824;8.662;2022-10-18T07:32:33;6.53;;;2.10;;
24650;SDS011;12783;48.824;8.662;2022-10-18T07:35:00;7.13;;;2.00;;
24650;SDS011;12783;48.824;8.662;2022-10-18T07:37:27;5.25;;;1.88;;
24650;SDS011;12783;48.824;8.662;2022-10-18T07:39:55;4.32;;;1.73;;
24650;SDS011;12783;48.824;8.662;2022-10-18T07:42:22;5.55;;;1.95;;
24650;SDS011;12783;48.824;8.662;2022-10-18T07:44:49;6.32;;;2.20;;
24650;SDS011;12783;48.824;8.662;2022-10-18T07:47:15;4.75;;;1.92;;
24650;SDS011;12783;48.824;8.662;2022-10-18T07:49:43;2.90;;;2.10;;
24650;SDS011;12783;48.824;8.662;2022-10-18T07:52:10;7.25;;;2.25;;
24650;SDS011;12783;48.824;8.662;2022-10-18T07:54:36;5.00;;;2.00;;
24650;SDS011;12783;48.824;8.662;2022-10-18T07:57:03;10.90;;;2.40;;
24650;SDS011;12783;48.824;8.662;2022-10-18T07:59:30;3.20;;;2.08;;
24650;SDS011;12783;48.824;8.662;2022-10-18T08:01:57;11.77;;;2.60;;
24650;SDS011;12783;48.824;8.662;2022-10-18T08:04:24;8.10;;;3.40;;
24650;SDS011;12783;48.824;8.662;2022-10-18T08:06:51;5.72;;;2.58;;
24650;SDS011;12783;48.824;8.662;2022-10-18T08:09:17;4.15;;;2.33;;
24650;SDS011;12783;48.824;8.662;2022-10-18T08:11:44;5.82;;;2.50;;
24650;SDS011;12783;48.824;8.662;2022-10-18T08:14:11;7.90;;;2.67;;
24650;SDS011;12783;48.824;8.662;2022-10-18T08:16:38;6.05;;;2.17;;
24650;SDS011;12783;48.824;8.662;2022-10-18T08:19:05;6.55;;;2.50;;
24650;SDS011;12783;48.824;8.662;2022-10-18T08:21:31;9.05;;;2.28;;
24650;SDS011;12783;48.824;8.662;2022-10-18T08:23:58;7.45;;;2.10;;
24650;SDS011;12783;48.824;8.662;2022-10-18T08:26:25;8.00;;;2.25;;
24650;SDS011;12783;48.824;8.662;2022-10-18T08:28:52;9.57;;;2.17;;
24650;SDS011;12783;48.824;8.662;2022-10-18T08:31:29;6.88;;;2.13;;
24650;SDS011;12783;48.824;8.662;2022-10-18T08:33:56;2.65;;;2.03;;
24650;SDS011;12783;48.824;8.662;2022-10-18T08:36:23;4.55;;;2.15;;
24650;SDS011;12783;48.824;8.662;2022-10-18T08:38:50;7.13;;;2.35;;
24650;SDS011;12783;48.824;8.662;2022-10-18T08:46:54;3.95;;;2.47;;
24650;SDS011;12783;48.824;8.662;2022-10-18T08:49:27;6.20;;;2.80;;
24650;SDS011;12783;48.824;8.662;2022-10-18T08:51:57;7.88;;;2.88;;
24650;SDS011;12783;48.824;8.662;2022-10-18T08:54:27;16.45;;;2.88;;
24650;SDS011;12783;48.824;8.662;2022-10-18T08:57:09;6.88;;;2.80;;
24650;SDS011;12783;48.824;8.662;2022-10-18T08:59:39;15.13;;;3.38;;
24650;SDS011;12783;48.824;8.662;2022-10-18T09:04:57;8.98;;;2.85;;
24650;SDS011;12783;48.824;8.662;2022-10-18T09:18:06;6.22;;;2.30;;
24650;SDS011;12783;48.824;8.662;2022-10-18T09:23:20;4.95;;;2.17;;
24650;SDS011;12783;48.824;8.662;2022-10-18T09:29:12;5.45;;;2.10;;
24650;SDS011;12783;48.824;8.662;2022-10-18T09:32:09;6.93;;;2.30;;
24650;SDS011;12783;48.824;8.662;2022-10-18T09:34:50;7.63;;;2.17;;
24650;SDS011;12783;48.824;8.662;2022-10-18T09:37:20;9.20;;;2.08;;
24650;SDS011;12783;48.824;8.662;2022-10-18T09:39:49;5.35;;;1.80;;
24650;SDS011;12783;48.824;8.662;2022-10-18T09:42:19;5.15;;;2.05;;
24650;SDS011;12783;48.824;8.662;2022-10-18T09:44:57;3.35;;;1.90;;
24650;SDS011;12783;48.824;8.662;2022-10-18T09:47:33;4.97;;;2.05;;
24650;SDS011;12783;48.824;8.662;2022-10-18T09:53:05;5.53;;;2.20;;
24650;SDS011;12783;48.824;8.662;2022-10-18T09:55:58;6.05;;;2.25;;
24650;SDS011;12783;48.824;8.662;2022-10-18T09:58:27;4.68;;;2.10;;
24650;SDS011;12783;48.824;8.662;2022-10-18T10:01:23;5.75;;;2.33;;
24650;SDS011;12783;48.824;8.662;2022-10-18T10:03:51;8.93;;;2.80;;
24650;SDS011;12783;48.824;8.662;2022-10-18T10:08:54;10.30;;;3.85;;
24650;SDS011;12783;48.824;8.662;2022-10-18T10:11:36;9.63;;;2.60;;
24650;SDS011;12783;48.824;8.662;2022-10-18T10:14:13;7.35;;;2.38;;
24650;SDS011;12783;48.824;8.662;2022-10-18T10:16:47;9.05;;;2.60;;
24650;SDS011;12783;48.824;8.662;2022-10-18T10:24:48;7.40;;;2.58;;
24650;SDS011;12783;48.824;8.662;2022-10-18T10:27:18;8.75;;;2.63;;
24650;SDS011;12783;48.824;8.662;2022-10-18T10:30:33;6.93;;;2.30;;
24650;SDS011;12783;48.824;8.662;2022-10-18T10:33:02;7.07;;;1.90;;
24650;SDS011;12783;48.824;8.662;2022-10-18T10:38:21;8.07;;;2.30;;
24650;SDS011;12783;48.824;8.662;2022-10-18T10:40:52;7.55;;;1.98;;
24650;SDS011;12783;48.824;8.662;2022-10-18T10:43:23;8.98;;;2.20;;
24650;SDS011;12783;48.824;8.662;2022-10-18T10:46:11;11.57;;;2.40;;
24650;SDS011;12783;48.824;8.662;2022-10-18T10:48:49;7.30;;;2.22;;
24650;SDS011;12783;48.824;8.662;2022-10-18T10:51:38;14.00;;;2.58;;
24650;SDS011;12783;48.824;8.662;2022-10-18T10:54:06;4.43;;;2.10;;
24650;SDS011;12783;48.824;8.662;2022-10-18T10:59:40;4.47;;;1.92;;
24650;SDS011;12783;48.824;8.662;2022-10-18T11:04:55;4.97;;;2.27;;
24650;SDS011;12783;48.824;8.662;2022-10-18T11:15:43;8.90;;;2.35;;
24650;SDS011;12783;48.824;8.662;2022-10-18T11:21:02;8.02;;;2.28;;
24650;SDS011;12783;48.824;8.662;2022-10-18T11:23:43;6.60;;;1.95;;
24650;SDS011;12783;48.824;8.662;2022-10-18T11:31:24;5.13;;;2.13;;
24650;SDS011;12783;48.824;8.662;2022-10-18T11:36:48;4.38;;;2.00;;
24650;SDS011;12783;48.824;8.662;2022-10-18T11:45:45;2.20;;;1.73;;
24650;SDS011;12783;48.824;8.662;2022-10-18T11:56:58;5.68;;;2.00;;
24650;SDS011;12783;48.824;8.662;2022-10-18T11:59:36;3.00;;;1.73;;
24650;SDS011;12783;48.824;8.662;2022-10-18T12:05:00;5.03;;;1.77;;
24650;SDS011;12783;48.824;8.662;2022-10-18T12:10:27;2.35;;;1.80;;
24650;SDS011;12783;48.824;8.662;2022-10-18T12:13:19;4.97;;;1.90;;
24650;SDS011;12783;48.824;8.662;2022-10-18T12:16:05;6.75;;;1.90;;
24650;SDS011;12783;48.824;8.662;2022-10-18T12:18:34;7.35;;;2.00;;
24650;SDS011;12783;48.824;8.662;2022-10-18T12:21:01;5.88;;;1.90;;
24650;SDS011;12783;48.824;8.662;2022-10-18T12:23:37;5.55;;;1.77;;
24650;SDS011;12783;48.824;8.662;2022-10-18T12:26:08;3.05;;;1.77;;
24650;SDS011;12783;48.824;8.662;2022-10-18T12:39:43;5.28;;;1.60;;
24650;SDS011;12783;48.824;8.662;2022-10-18T12:45:17;4.10;;;1.55;;
24650;SDS011;12783;48.824;8.662;2022-10-18T12:47:53;3.20;;;1.27;;
24650;SDS011;12783;48.824;8.662;2022-10-18T12:53:05;5.28;;;1.70;;
24650;SDS011;12783;48.824;8.662;2022-10-18T12:55:47;6.88;;;1.80;;
24650;SDS011;12783;48.824;8.662;2022-10-18T12:58:30;3.67;;;1.70;;
24650;SDS011;12783;48.824;8.662;2022-10-18T13:00:58;3.22;;;1.55;;
24650;SDS011;12783;48.824;8.662;2022-10-18T13:03:37;3.55;;;1.27;;
24650;SDS011;12783;48.824;8.662;2022-10-18T13:06:25;8.32;;;1.70;;
24650;SDS011;12783;48.824;8.662;2022-10-18T13:18:01;3.63;;;1.70;;
24650;SDS011;12783;48.824;8.662;2022-10-18T13:26:02;1.75;;;1.48;;
24650;SDS011;12783;48.824;8.662;2022-10-18T13:28:51;3.55;;;1.50;;
24650;SDS011;12783;48.824;8.662;2022-10-18T13:33:55;2.22;;;1.60;;
24650;SDS011;12783;48.824;8.662;2022-10-18T13:39:23;2.33;;;1.50;;
24650;SDS011;12783;48.824;8.662;2022-10-18T13:44:35;3.22;;;1.40;;
24650;SDS011;12783;48.824;8.662;2022-10-18T14:03:46;4.47;;;1.38;;
24650;SDS011;12783;48.824;8.662;2022-10-18T14:06:24;3.00;;;1.80;;
24650;SDS011;12783;48.824;8.662;2022-10-18T14:08:55;2.42;;;1.50;;
24650;SDS011;12783;48.824;8.662;2022-10-18T14:11:44;11.85;;;5.00;;
24650;SDS011;12783;48.824;8.662;2022-10-18T14:25:35;6.68;;;2.38;;
24650;SDS011;12783;48.824;8.662;2022-10-18T14:28:13;7.32;;;3.40;;
24650;SDS011;12783;48.824;8.662;2022-10-18T14:41:18;15.50;;;13.30;;
24650;SDS011;12783;48.824;8.662;2022-10-18T14:43:47;6.75;;;4.70;;
24650;SDS011;12783;48.824;8.662;2022-10-18T14:46:21;11.90;;;5.32;;
24650;SDS011;12783;48.824;8.662;2022-10-18T14:48:57;9.82;;;3.78;;
24650;SDS011;12783;48.824;8.662;2022-10-18T14:51:25;7.78;;;3.40;;
24650;SDS011;12783;48.824;8.662;2022-10-18T14:53:53;22.75;;;16.95;;
24650;SDS011;12783;48.824;8.662;2022-10-18T14:56:30;20.42;;;14.35;;
24650;SDS011;12783;48.824;8.662;2022-10-18T14:59:00;15.23;;;8.27;;
24650;SDS011;12783;48.824;8.662;2022-10-18T15:01:29;13.38;;;8.43;;
24650;SDS011;12783;48.824;8.662;2022-10-18T15:03:59;6.55;;;5.05;;
24650;SDS011;12783;48.824;8.662;2022-10-18T15:06:27;16.40;;;10.30;;
24650;SDS011;12783;48.824;8.662;2022-10-18T15:08:55;11.00;;;5.50;;
24650;SDS011;12783;48.824;8.662;2022-10-18T15:11:23;6.97;;;4.18;;
24650;SDS011;12783;48.824;8.662;2022-10-18T15:13:52;6.50;;;3.92;;
24650;SDS011;12783;48.824;8.662;2022-10-18T15:16:25;8.95;;;4.75;;
24650;SDS011;12783;48.824;8.662;2022-10-18T15:18:57;12.70;;;7.00;;
24650;SDS011;12783;48.824;8.662;2022-10-18T15:21:29;8.02;;;4.78;;
24650;SDS011;12783;48.824;8.662;2022-10-18T15:24:17;6.78;;;4.60;;
24650;SDS011;12783;48.824;8.662;2022-10-18T15:26:44;14.43;;;5.68;;
24650;SDS011;12783;48.824;8.662;2022-10-18T15:29:17;19.77;;;7.20;;
24650;SDS011;12783;48.824;8.662;2022-10-18T15:31:45;14.73;;;5.65;;
24650;SDS011;12783;48.824;8.662;2022-10-18T15:34:17;7.53;;;4.20;;
24650;SDS011;12783;48.824;8.662;2022-10-18T15:36:45;4.38;;;3.90;;
24650;SDS011;12783;48.824;8.662;2022-10-18T15:39:18;7.13;;;3.97;;
24650;SDS011;12783;48.824;8.662;2022-10-18T15:41:59;6.97;;;3.90;;
24650;SDS011;12783;48.824;8.662;2022-10-18T15:44:28;9.50;;;4.15;;
24650;SDS011;12783;48.824;8.662;2022-10-18T15:47:21;7.60;;;4.45;;
24650;SDS011;12783;48.824;8.662;2022-10-18T15:49:53;10.95;;;4.65;;
24650;SDS011;12783;48.824;8.662;2022-10-18T15:52:40;10.93;;;4.10;;
24650;SDS011;12783;48.824;8.662;2022-10-18T15:58:03;6.53;;;5.05;;
24650;SDS011;12783;48.824;8.662;2022-10-18T16:00:30;6.83;;;4.13;;
24650;SDS011;12783;48.824;8.662;2022-10-18T16:02:57;9.65;;;4.70;;
24650;SDS011;12783;48.824;8.662;2022-10-18T16:05:24;7.32;;;3.72;;
24650;SDS011;12783;48.824;8.662;2022-10-18T16:07:51;12.73;;;4.60;;
24650;SDS011;12783;48.824;8.662;2022-10-18T16:10:17;10.95;;;5.75;;
24650;SDS011;12783;48.824;8.662;2022-10-18T16:12:44;5.95;;;4.53;;
24650;SDS011;12783;48.824;8.662;2022-10-18T16:15:11;10.57;;;4.28;;
24650;SDS011;12783;48.824;8.662;2022-10-18T16:17:38;6.10;;;3.60;;
24650;SDS011;12783;48.824;8.662;2022-10-18T16:20:05;11.82;;;4.07;;
24650;SDS011;12783;48.824;8.662;2022-10-18T16:22:34;7.78;;;3.90;;
24650;SDS011;12783;48.824;8.662;2022-10-18T16:25:02;6.75;;;4.05;;
24650;SDS011;12783;48.824;8.662;2022-10-18T16:27:29;10.20;;;5.88;;
24650;SDS011;12783;48.824;8.662;2022-10-18T16:29:56;7.05;;;3.95;;
24650;SDS011;12783;48.824;8.662;2022-10-18T16:32:23;7.63;;;4.13;;
24650;SDS011;12783;48.824;8.662;2022-10-18T16:34:49;8.77;;;4.28;;
24650;SDS011;12783;48.824;8.662;2022-10-18T16:37:16;8.23;;;3.88;;
24650;SDS011;12783;48.824;8.662;2022-10-18T16:39:43;4.95;;;3.30;;
24650;SDS011;12783;48.824;8.662;2022-10-18T16:42:09;9.70;;;4.32;;
24650;SDS011;12783;48.824;8.662;2022-10-18T16:44:36;6.68;;;4.28;;
24650;SDS011;12783;48.824;8.662;2022-10-18T16:47:03;8.05;;;4.63;;
24650;SDS011;12783;48.824;8.662;2022-10-18T16:49:30;6.63;;;4.60;;
24650;SDS011;12783;48.824;8.662;2022-10-18T16:51:57;13.50;;;5.72;;
24650;SDS011;12783;48.824;8.662;2022-10-18T16:54:24;11.32;;;8.05;;
24650;SDS011;12783;48.824;8.662;2022-10-18T16:56:51;12.60;;;5.75;;
24650;SDS011;12783;48.824;8.662;2022-10-18T16:59:25;14.00;;;10.52;;
24650;SDS011;12783;48.824;8.662;2022-10-18T17:01:54;17.35;;;11.38;;
24650;SDS011;12783;48.824;8.662;2022-10-18T17:04:21;11.07;;;7.30;;
24650;SDS011;12783;48.824;8.662;2022-10-18T17:06:48;8.50;;;5.63;;
24650;SDS011;12783;48.824;8.662;2022-10-18T17:09:22;8.32;;;5.10;;
24650;SDS011;12783;48.824;8.662;2022-10-18T17:11:49;6.80;;;5.05;;
24650;SDS011;12783;48.824;8.662;2022-10-18T17:14:16;9.68;;;5.15;;
24650;SDS011;12783;48.824;8.662;2022-10-18T17:16:43;9.10;;;5.30;;
24650;SDS011;12783;48.824;8.662;2022-10-18T17:19:15;6.82;;;5.10;;
24650;SDS011;12783;48.824;8.662;2022-10-18T17:21:42;10.57;;;5.88;;
24650;SDS011;12783;48.824;8.662;2022-10-18T17:24:09;10.07;;;6.10;;
24650;SDS011;12783;48.824;8.662;2022-10-18T17:26:36;11.48;;;6.00;;
24650;SDS011;12783;48.824;8.662;2022-10-18T17:29:04;9.30;;;5.70;;
24650;SDS011;12783;48.824;8.662;2022-10-18T17:31:32;10.57;;;5.53;;
24650;SDS011;12783;48.824;8.662;2022-10-18T17:34:00;6.82;;;5.22;;
24650;SDS011;12783;48.824;8.662;2022-10-18T17:36:31;6.50;;;5.10;;
24650;SDS011;12783;48.824;8.662;2022-10-18T17:38:58;9.52;;;5.35;;
24650;SDS011;12783;48.824;8.662;2022-10-18T17:41:25;7.18;;;5.78;;
24650;SDS011;12783;48.824;8.662;2022-10-18T17:43:52;9.93;;;5.68;;
24650;SDS011;12783;48.824;8.662;2022-10-18T17:46:19;7.68;;;5.93;;
24650;SDS011;12783;48.824;8.662;2022-10-18T17:48:46;7.97;;;5.80;;
24650;SDS011;12783;48.824;8.662;2022-10-18T17:51:14;9.07;;;5.68;;
24650;SDS011;12783;48.824;8.662;2022-10-18T17:53:42;9.05;;;6.00;;
24650;SDS011;12783;48.824;8.662;2022-10-18T17:56:09;8.05;;;5.57;;
24650;SDS011;12783;48.824;8.662;2022-10-18T17:58:36;8.35;;;6.10;;
24650;SDS011;12783;48.824;8.662;2022-10-18T18:01:09;8.48;;;5.90;;
24650;SDS011;12783;48.824;8.662;2022-10-18T18:03:37;7.97;;;6.32;;
24650;SDS011;12783;48.824;8.662;2022-10-18T18:06:17;15.68;;;6.70;;
24650;SDS011;12783;48.824;8.662;2022-10-18T18:08:45;10.13;;;6.30;;
24650;SDS011;12783;48.824;8.662;2022-10-18T18:11:13;8.27;;;6.82;;
24650;SDS011;12783;48.824;8.662;2022-10-18T18:13:41;14.15;;;6.85;;